createdAt,value
2019-04-27T00:01:55.763Z,93.90
2019-04-27T00:04:52.811Z,94.20
2019-04-27T00:07:39.247Z,95.10
2019-04-27T00:10:29.248Z,94.20
2019-04-27T00:13:02.125Z,94.60
2019-04-27T00:15:49.831Z,94.10
2019-04-27T00:18:35.663Z,94.10
2019-04-27T00:21:30.871Z,94.60
2019-04-27T00:24:01.128Z,95.20
2019-04-27T00:26:31.021Z,95.90
2019-04-27T00:29:00.988Z,97.00
2019-04-27T00:31:31.198Z,97.80
2019-04-27T00:34:01.037Z,98.20
2019-04-27T00:36:37.172Z,99.30
2019-04-27T00:39:25.371Z,99.60
2019-04-27T00:41:55.377Z,99.80
2019-04-27T00:44:25.329Z,99.90
2019-04-27T00:46:55.429Z,99.90
2019-04-27T00:49:25.351Z,99.90
2019-04-27T00:51:55.270Z,99.90
2019-04-27T00:54:25.174Z,99.90
2019-04-27T00:57:08.846Z,99.90
2019-04-27T00:59:57.334Z,99.90
2019-04-27T01:02:35.546Z,99.90
2019-04-27T01:05:08.946Z,99.90
2019-04-27T01:12:37.974Z,99.30
2019-04-27T01:15:07.992Z,99.60
2019-04-27T01:17:39.095Z,99.50
2019-04-27T01:20:08.994Z,99.50
2019-04-27T01:22:39.224Z,99.80
2019-04-27T01:25:09.203Z,99.60
2019-04-27T01:27:57.451Z,99.90
2019-04-27T01:30:34.307Z,99.50
2019-04-27T01:33:04.179Z,99.90
2019-04-27T01:35:34.050Z,99.90
2019-04-27T01:38:03.911Z,99.70
2019-04-27T01:40:33.833Z,99.20
2019-04-27T01:43:03.715Z,99.80
2019-04-27T01:45:33.640Z,99.90
2019-04-27T01:48:03.731Z,99.70
2019-04-27T01:50:33.598Z,99.80
2019-04-27T01:53:03.446Z,99.90
2019-04-27T01:55:33.347Z,99.90
2019-04-27T01:58:03.293Z,99.90
2019-04-27T02:01:12.111Z,99.90
2019-04-27T02:04:04.602Z,99.90
2019-04-27T02:06:34.434Z,99.60
2019-04-27T02:09:04.783Z,99.30
2019-04-27T02:11:36.345Z,99.20
2019-04-27T02:14:06.238Z,99.60
2019-04-27T02:16:36.123Z,99.90
2019-04-27T02:19:06.025Z,99.70
2019-04-27T02:21:35.891Z,99.90
2019-04-27T02:24:05.980Z,99.70
2019-04-27T02:26:35.811Z,99.30
2019-04-27T02:29:14.033Z,99.40
2019-04-27T02:31:56.005Z,99.50
2019-04-27T02:34:31.980Z,99.50
2019-04-27T02:37:02.570Z,99.60
2019-04-27T02:39:31.933Z,99.60
2019-04-27T02:42:01.791Z,99.20
2019-04-27T02:44:40.692Z,99.00
2019-04-27T02:47:10.884Z,99.60
2019-04-27T02:49:40.942Z,99.40
2019-04-27T02:52:20.836Z,99.30
2019-04-27T02:54:50.864Z,99.50
2019-04-27T02:57:20.750Z,99.80
2019-04-27T02:59:50.673Z,99.90
2019-04-27T03:02:29.968Z,99.80
2019-04-27T03:05:00.734Z,99.90
2019-04-27T03:07:30.730Z,99.70
2019-04-27T03:10:02.401Z,99.90
2019-04-27T03:12:39.865Z,99.90
2019-04-27T03:15:23.489Z,99.70
2019-04-27T03:18:10.594Z,99.30
2019-04-27T03:20:51.029Z,99.90
2019-04-27T03:23:20.848Z,99.70
2019-04-27T03:26:10.650Z,99.40
2019-04-27T03:28:41.740Z,99.90
2019-04-27T03:31:13.448Z,99.90
2019-04-27T03:33:43.504Z,99.90
2019-04-27T03:36:13.649Z,99.90
2019-04-27T03:38:43.589Z,99.90
2019-04-27T03:41:13.489Z,99.90
2019-04-27T03:43:43.322Z,99.80
2019-04-27T03:46:13.243Z,99.90
2019-04-27T03:48:43.175Z,99.90
2019-04-27T03:51:50.749Z,99.70
2019-04-27T03:54:40.109Z,99.20
2019-04-27T03:57:16.472Z,99.70
2019-04-27T04:00:00.087Z,99.90
2019-04-27T04:02:30.696Z,99.20
2019-04-27T04:05:00.549Z,99.10
2019-04-27T04:07:30.405Z,99.40
2019-04-27T04:10:00.566Z,99.00
2019-04-27T04:12:36.849Z,99.40
2019-04-27T04:15:09.934Z,98.80
2019-04-27T04:17:40.343Z,98.60
2019-04-27T04:20:10.409Z,98.90
2019-04-27T04:22:40.528Z,98.60
2019-04-27T04:25:10.909Z,98.60
2019-04-27T04:27:42.885Z,98.40
2019-04-27T04:30:12.745Z,98.10
2019-04-27T04:32:42.725Z,97.60
2019-04-27T04:35:20.746Z,97.90
2019-04-27T04:37:53.053Z,98.10
2019-04-27T04:40:26.774Z,97.90
2019-04-27T04:43:03.631Z,97.70
2019-04-27T04:46:05.166Z,98.00
2019-04-27T04:48:35.147Z,98.00
2019-04-27T04:51:05.048Z,98.00
2019-04-27T04:53:34.893Z,97.90
2019-04-27T04:56:04.734Z,97.60
2019-04-27T04:58:34.585Z,98.00
2019-04-27T05:01:05.548Z,97.60
2019-04-27T05:03:35.396Z,97.70
2019-04-27T05:06:05.237Z,97.80
2019-04-27T05:08:35.073Z,98.30
2019-04-27T05:11:04.908Z,98.00
2019-04-27T05:13:34.757Z,97.90
2019-04-27T05:16:04.619Z,97.40
2019-04-27T05:18:34.584Z,98.20
2019-04-27T05:21:10.440Z,98.50
2019-04-27T05:23:40.399Z,97.60
2019-04-27T05:26:10.339Z,98.70
2019-04-27T05:28:40.877Z,98.40
2019-04-27T05:31:10.835Z,98.00
2019-04-27T05:33:40.795Z,98.30
2019-04-27T05:36:10.713Z,98.40
2019-04-27T05:38:45.936Z,98.40
2019-04-27T05:41:12.193Z,99.20
2019-04-27T05:43:49.095Z,98.40
2019-04-27T05:46:55.951Z,98.60
2019-04-27T05:49:31.298Z,99.30
2019-04-27T05:52:01.176Z,98.80
2019-04-27T05:54:31.102Z,98.90
2019-04-27T05:57:00.949Z,98.90
2019-04-27T05:59:30.793Z,98.40
2019-04-27T06:02:00.653Z,97.90
2019-04-27T06:04:30.557Z,97.70
2019-04-27T06:07:01.003Z,97.50
2019-04-27T06:09:31.121Z,97.20
2019-04-27T06:12:00.960Z,97.30
2019-04-27T06:14:30.824Z,97.20
2019-04-27T06:17:00.759Z,97.30
2019-04-27T06:19:31.667Z,96.50
2019-04-27T06:22:01.497Z,96.60
2019-04-27T06:27:10.549Z,96.30
2019-04-27T06:29:40.868Z,94.90
2019-04-27T06:32:11.964Z,95.40
2019-04-27T06:34:41.818Z,95.80
2019-04-27T06:37:11.676Z,95.40
2019-04-27T06:39:41.590Z,95.70
2019-04-27T06:42:18.521Z,95.10
2019-04-27T06:44:43.127Z,95.40
2019-04-27T06:47:12.969Z,94.40
2019-04-27T06:49:42.953Z,95.10
2019-04-27T06:52:12.850Z,95.40
2019-04-27T06:54:42.721Z,94.90
2019-04-27T06:57:12.616Z,94.00
2019-04-27T06:59:42.495Z,94.70
2019-04-27T07:02:12.363Z,94.30
2019-04-27T07:04:42.272Z,94.80
2019-04-27T07:07:12.111Z,94.50
2019-04-27T07:09:43.085Z,94.70
2019-04-27T07:12:12.998Z,94.80
2019-04-27T07:14:52.263Z,94.30
2019-04-27T07:17:14.527Z,94.20
2019-04-27T07:19:44.418Z,94.70
2019-04-27T07:22:14.381Z,93.50
2019-04-27T07:24:44.212Z,92.30
2019-04-27T07:27:14.059Z,92.60
2019-04-27T07:29:44.823Z,92.50
2019-04-27T07:32:14.832Z,92.50
2019-04-27T07:34:44.715Z,92.80
2019-04-27T07:37:14.569Z,92.60
2019-04-27T07:39:44.491Z,93.90
2019-04-27T07:42:14.435Z,92.80
2019-04-27T07:44:50.006Z,92.20
2019-04-27T07:47:25.018Z,91.60
2019-04-27T07:49:54.867Z,92.30
2019-04-27T07:52:24.872Z,92.00
2019-04-27T07:54:54.724Z,91.30
2019-04-27T07:57:24.579Z,91.90
2019-04-27T07:59:54.521Z,91.30
2019-04-27T08:02:24.434Z,90.90
2019-04-27T08:04:54.288Z,90.00
2019-04-27T08:07:24.196Z,90.80
2019-04-27T08:09:54.091Z,90.30
2019-04-27T08:12:23.952Z,90.40
2019-04-27T08:14:53.783Z,90.50
2019-04-27T08:17:23.663Z,91.20
2019-04-27T08:19:53.491Z,91.00
2019-04-27T08:22:23.371Z,90.60
2019-04-27T08:24:53.271Z,90.40
2019-04-27T08:27:30.823Z,90.60
2019-04-27T08:30:14.367Z,91.90
2019-04-27T08:32:46.211Z,91.90
2019-04-27T08:35:16.347Z,91.50
2019-04-27T08:37:46.257Z,90.90
2019-04-27T08:40:16.690Z,91.60
2019-04-27T08:42:46.559Z,91.80
2019-04-27T08:45:16.388Z,91.80
2019-04-27T08:47:46.238Z,90.80
2019-04-27T08:50:19.074Z,90.90
2019-04-27T08:52:50.165Z,90.80
2019-04-27T08:55:21.301Z,91.50
2019-04-27T08:57:51.175Z,91.00
2019-04-27T09:00:21.042Z,91.50
2019-04-27T09:02:50.932Z,91.50
2019-04-27T09:05:28.649Z,90.90
2019-04-27T09:08:21.914Z,90.90
2019-04-27T09:10:56.935Z,91.40
2019-04-27T09:13:41.291Z,89.70
2019-04-27T09:16:22.191Z,88.50
2019-04-27T09:18:54.459Z,89.10
2019-04-27T09:21:24.291Z,88.40
2019-04-27T09:23:54.147Z,89.90
2019-04-27T09:26:23.982Z,87.70
2019-04-27T09:28:53.823Z,86.20
2019-04-27T09:31:23.715Z,82.80
2019-04-27T09:33:53.648Z,82.80
2019-04-27T09:36:23.501Z,84.60
2019-04-27T09:38:53.455Z,81.10
2019-04-27T09:41:23.375Z,81.10
2019-04-27T09:43:53.250Z,78.90
2019-04-27T09:46:23.127Z,79.40
2019-04-27T09:48:53.045Z,79.60
2019-04-27T09:51:22.919Z,78.50
2019-04-27T09:53:52.806Z,78.70
2019-04-27T09:56:22.743Z,81.50
2019-04-27T09:58:52.575Z,75.70
2019-04-27T10:01:22.551Z,80.30
2019-04-27T10:03:52.420Z,79.10
2019-04-27T10:06:22.287Z,74.90
2019-04-27T10:08:53.237Z,74.40
2019-04-27T10:11:23.080Z,76.00
2019-04-27T10:13:52.934Z,72.10
2019-04-27T10:16:22.803Z,74.70
2019-04-27T10:18:53.740Z,73.40
2019-04-27T10:21:23.637Z,70.60
2019-04-27T10:23:53.469Z,74.80
2019-04-27T10:26:23.332Z,73.90
2019-04-27T10:28:53.253Z,72.00
2019-04-27T10:31:23.127Z,71.30
2019-04-27T10:33:53.043Z,68.80
2019-04-27T10:36:41.296Z,68.40
2019-04-27T10:39:13.439Z,68.40
2019-04-27T10:41:46.136Z,67.20
2019-04-27T10:44:17.337Z,66.50
2019-04-27T10:46:47.251Z,64.10
2019-04-27T10:49:17.153Z,68.30
2019-04-27T10:51:47.054Z,66.80
2019-04-27T10:54:16.929Z,63.90
2019-04-27T10:56:46.804Z,61.30
2019-04-27T10:59:16.689Z,66.70
2019-04-27T11:01:46.632Z,61.70
2019-04-27T11:04:31.020Z,63.50
2019-04-27T11:07:07.611Z,65.20
2019-04-27T11:09:38.476Z,57.30
2019-04-27T11:12:08.340Z,61.60
2019-04-27T11:14:38.188Z,60.70
2019-04-27T11:17:09.791Z,60.40
2019-04-27T11:19:39.688Z,59.40
2019-04-27T11:22:09.614Z,63.50
2019-04-27T11:24:39.457Z,62.00
2019-04-27T11:27:09.395Z,58.70
2019-04-27T11:29:39.455Z,61.40
2019-04-27T11:32:09.365Z,62.60
2019-04-27T11:34:57.211Z,57.50
2019-04-27T11:37:30.961Z,63.20
2019-04-27T11:40:01.955Z,59.70
2019-04-27T11:42:32.895Z,55.30
2019-04-27T11:45:02.727Z,60.60
2019-04-27T11:47:32.571Z,60.50
2019-04-27T11:50:03.584Z,57.70
2019-04-27T11:52:33.415Z,59.90
2019-04-27T11:55:03.320Z,61.30
2019-04-27T11:57:35.735Z,58.10
2019-04-27T12:00:07.889Z,60.00
2019-04-27T12:02:37.760Z,57.70
2019-04-27T12:05:08.062Z,56.30
2019-04-27T12:07:38.090Z,54.60
2019-04-27T12:10:08.427Z,55.00
2019-04-27T12:12:38.280Z,54.50
2019-04-27T12:15:08.267Z,56.90
2019-04-27T12:17:38.139Z,56.50
2019-04-27T12:20:08.138Z,58.00
2019-04-27T12:22:37.973Z,58.90
2019-04-27T12:25:07.916Z,55.20
2019-04-27T12:27:55.812Z,58.90
2019-04-27T12:31:03.120Z,55.60
2019-04-27T12:33:33.013Z,55.20
2019-04-27T12:36:02.928Z,53.80
2019-04-27T12:38:32.846Z,51.10
2019-04-27T12:41:02.854Z,50.10
2019-04-27T12:43:32.753Z,49.00
2019-04-27T12:46:02.612Z,51.00
2019-04-27T12:48:32.515Z,47.00
2019-04-27T12:51:02.392Z,51.20
2019-04-27T12:53:55.861Z,49.20
2019-04-27T12:56:45.766Z,52.80
2019-04-27T12:59:36.519Z,55.80
2019-04-27T13:02:07.055Z,52.60
2019-04-27T13:04:38.395Z,52.80
2019-04-27T13:07:08.316Z,53.70
2019-04-27T13:09:38.250Z,51.90
2019-04-27T13:12:08.094Z,49.10
2019-04-27T13:14:39.021Z,50.50
2019-04-27T13:17:08.880Z,50.90
2019-04-27T13:19:38.769Z,51.80
2019-04-27T13:22:08.697Z,49.80
2019-04-27T13:24:38.603Z,50.20
2019-04-27T13:27:08.545Z,49.60
2019-04-27T13:29:38.505Z,51.70
2019-04-27T13:32:08.480Z,54.00
2019-04-27T13:34:38.393Z,52.20
2019-04-27T13:37:27.269Z,56.60
2019-04-27T13:40:04.656Z,55.70
2019-04-27T13:42:30.435Z,55.60
2019-04-27T13:45:02.194Z,57.40
2019-04-27T13:47:43.337Z,58.30
2019-04-27T13:50:21.760Z,59.30
2019-04-27T13:52:51.791Z,58.50
2019-04-27T13:55:22.011Z,59.60
2019-04-27T13:57:51.928Z,58.10
2019-04-27T14:00:21.771Z,57.20
2019-04-27T14:02:53.465Z,55.60
2019-04-27T14:05:23.179Z,56.50
2019-04-27T14:07:53.043Z,58.00
2019-04-27T14:10:22.909Z,60.10
2019-04-27T14:12:52.809Z,57.70
2019-04-27T14:15:22.717Z,60.40
2019-04-27T14:17:52.587Z,60.80
2019-04-27T14:20:22.443Z,62.60
2019-04-27T14:22:54.040Z,62.90
2019-04-27T14:25:23.908Z,62.90
2019-04-27T14:27:53.864Z,64.10
2019-04-27T14:30:23.719Z,64.30
2019-04-27T14:32:53.583Z,66.20
2019-04-27T14:35:23.458Z,64.90
2019-04-27T14:37:53.331Z,67.50
2019-04-27T14:40:23.274Z,66.60
2019-04-27T14:42:53.770Z,67.60
2019-04-27T14:45:23.728Z,68.60
2019-04-27T14:47:53.609Z,67.60
2019-04-27T14:50:23.465Z,67.20
2019-04-27T14:52:53.388Z,69.10
2019-04-27T14:55:23.311Z,68.20
2019-04-27T14:57:53.179Z,68.20
2019-04-27T15:00:23.018Z,67.90
2019-04-27T15:02:52.861Z,65.90
2019-04-27T15:05:22.751Z,66.10
2019-04-27T15:07:54.539Z,66.30
2019-04-27T15:10:28.636Z,63.60
2019-04-27T15:12:55.811Z,66.40
2019-04-27T15:15:28.365Z,67.40
2019-04-27T15:17:57.570Z,69.20
2019-04-27T15:20:36.048Z,68.50
2019-04-27T15:23:06.156Z,68.40
2019-04-27T15:25:43.575Z,67.10
2019-04-27T15:28:12.217Z,69.10
2019-04-27T15:31:25.382Z,71.20
2019-04-27T15:34:05.719Z,70.60
2019-04-27T15:36:47.013Z,72.30
2019-04-27T15:39:26.869Z,72.40
2019-04-27T15:42:01.999Z,73.90
2019-04-27T15:44:29.964Z,70.60
2019-04-27T15:47:03.564Z,70.60
2019-04-27T15:49:31.520Z,73.20
2019-04-27T15:52:01.360Z,73.30
2019-04-27T15:54:32.336Z,74.00
2019-04-27T15:57:05.834Z,75.20
2019-04-27T15:59:37.739Z,74.90
2019-04-27T16:02:12.186Z,74.40
2019-04-27T16:04:39.579Z,73.30
2019-04-27T16:07:09.219Z,72.20
2019-04-27T16:09:39.311Z,70.50
2019-04-27T16:12:12.528Z,73.90
2019-04-27T16:14:44.029Z,72.70
2019-04-27T16:17:12.412Z,74.70
2019-04-27T16:19:46.820Z,71.80
2019-04-27T16:22:13.970Z,70.70
2019-04-27T16:24:43.895Z,74.90
2019-04-27T16:27:14.995Z,74.20
2019-04-27T16:29:45.036Z,75.10
2019-04-27T16:32:14.858Z,74.40
2019-04-27T16:34:45.634Z,73.50
2019-04-27T16:37:24.742Z,73.50
2019-04-27T16:39:54.663Z,71.50
2019-04-27T16:42:24.485Z,70.70
2019-04-27T16:44:54.407Z,72.90
2019-04-27T16:47:25.313Z,71.50
2019-04-27T16:49:55.292Z,72.10
2019-04-27T16:52:27.382Z,73.10
2019-04-27T16:54:58.966Z,74.60
2019-04-27T16:57:32.542Z,70.90
2019-04-27T17:00:01.173Z,71.60
2019-04-27T17:02:32.874Z,72.80
2019-04-27T17:05:02.982Z,74.10
2019-04-27T17:07:37.495Z,74.30
2019-04-27T17:10:04.655Z,73.30
2019-04-27T17:12:39.996Z,71.00
2019-04-27T17:15:40.552Z,74.50
2019-04-27T17:18:38.548Z,74.10
2019-04-27T17:21:18.312Z,74.90
2019-04-27T17:23:40.182Z,75.60
2019-04-27T17:26:21.128Z,74.40
2019-04-27T17:28:50.936Z,74.10
2019-04-27T17:31:24.303Z,76.70
2019-04-27T17:34:00.562Z,78.00
2019-04-27T17:36:30.301Z,78.40
2019-04-27T17:39:00.138Z,78.60
2019-04-27T17:41:30.020Z,78.30
2019-04-27T17:43:59.944Z,79.70
2019-04-27T17:46:29.793Z,79.40
2019-04-27T17:49:00.245Z,78.30
2019-04-27T17:51:30.962Z,78.00
2019-04-27T17:54:03.053Z,78.30
2019-04-27T17:56:36.189Z,78.60
2019-04-27T17:59:04.905Z,78.70
2019-04-27T18:01:34.732Z,78.90
2019-04-27T18:04:06.519Z,79.60
2019-04-27T18:06:36.199Z,79.50
2019-04-27T18:09:10.386Z,79.80
2019-04-27T18:11:41.369Z,79.60
2019-04-27T18:14:14.554Z,80.30
2019-04-27T18:16:42.842Z,80.40
2019-04-27T18:19:29.895Z,81.70
2019-04-27T18:22:07.015Z,82.70
2019-04-27T18:24:47.554Z,83.30
2019-04-27T18:27:37.758Z,84.60
2019-04-27T18:30:25.709Z,83.90
2019-04-27T18:32:59.412Z,84.30
2019-04-27T18:35:27.855Z,84.20
2019-04-27T18:38:01.666Z,83.40
2019-04-27T18:40:32.598Z,83.10
2019-04-27T18:43:05.931Z,82.50
2019-04-27T18:45:33.481Z,83.20
2019-04-27T18:48:13.452Z,82.90
2019-04-27T18:50:48.405Z,82.80
2019-04-27T18:53:24.686Z,83.00
2019-04-27T18:55:59.474Z,82.70
2019-04-27T18:58:27.311Z,83.70
2019-04-27T19:00:58.389Z,83.40
2019-04-27T19:03:31.569Z,82.10
2019-04-27T19:06:00.843Z,82.30
2019-04-27T19:08:30.727Z,83.70
2019-04-27T19:11:00.560Z,82.10
2019-04-27T19:13:32.123Z,82.00
2019-04-27T19:16:02.067Z,82.20
2019-04-27T19:18:31.965Z,82.80
2019-04-27T19:21:01.835Z,82.80
2019-04-27T19:23:32.946Z,84.20
2019-04-27T19:26:24.643Z,84.00
2019-04-27T19:29:12.467Z,83.50
2019-04-27T19:31:48.216Z,85.00
2019-04-27T19:34:18.626Z,85.50
2019-04-27T19:36:48.952Z,83.20
2019-04-27T19:39:18.982Z,83.00
2019-04-27T19:41:58.041Z,84.40
2019-04-27T19:44:21.583Z,84.80
2019-04-27T19:46:51.416Z,84.80
2019-04-27T19:49:21.525Z,85.10
2019-04-27T19:51:51.455Z,86.00
2019-04-27T19:54:21.386Z,86.40
2019-04-27T19:56:51.242Z,88.00
2019-04-27T19:59:25.751Z,88.20
2019-04-27T20:01:58.376Z,90.10
2019-04-27T20:04:30.745Z,90.40
2019-04-27T20:07:01.738Z,89.30
2019-04-27T20:09:50.061Z,89.80
2019-04-27T20:12:21.277Z,89.80
2019-04-27T20:14:57.391Z,88.80
2019-04-27T20:17:31.552Z,89.90
2019-04-27T20:20:02.302Z,88.90
2019-04-27T20:22:32.955Z,88.00
2019-04-27T20:25:02.846Z,87.70
2019-04-27T20:27:44.995Z,87.50
2019-04-27T20:30:06.372Z,87.10
2019-04-27T20:32:36.527Z,86.70
2019-04-27T20:35:06.814Z,87.20
2019-04-27T20:37:36.740Z,86.80
2019-04-27T20:40:07.221Z,87.60
2019-04-27T20:42:37.206Z,87.30
2019-04-27T20:45:07.151Z,88.60
2019-04-27T20:47:37.067Z,88.20
2019-04-27T20:50:07.465Z,87.40
2019-04-27T20:52:56.442Z,88.70
2019-04-27T20:55:26.294Z,85.80
2019-04-27T20:58:01.849Z,87.60
2019-04-27T21:00:27.839Z,88.20
2019-04-27T21:03:05.337Z,88.80
2019-04-27T21:05:54.206Z,88.50
2019-04-27T21:08:24.644Z,89.60
2019-04-27T21:10:54.612Z,88.50
2019-04-27T21:13:24.542Z,89.00
2019-04-27T21:15:54.543Z,89.10
2019-04-27T21:18:24.559Z,89.80
2019-04-27T21:20:54.527Z,88.50
2019-04-27T21:23:25.590Z,90.00
2019-04-27T21:25:55.496Z,90.50
2019-04-27T21:28:25.381Z,91.10
2019-04-27T21:30:56.308Z,90.70
2019-04-27T21:33:26.155Z,90.90
2019-04-27T21:35:56.120Z,91.50
2019-04-27T21:38:26.011Z,90.40
2019-04-27T21:40:55.865Z,90.30
2019-04-27T21:43:25.797Z,90.70
2019-04-27T21:45:55.635Z,90.30
2019-04-27T21:48:25.492Z,90.20
2019-04-27T21:50:55.326Z,90.50
2019-04-27T21:53:31.695Z,90.50
2019-04-27T21:56:03.010Z,90.70
2019-04-27T21:58:33.294Z,91.00
2019-04-27T22:01:21.669Z,91.30
2019-04-27T22:03:52.807Z,90.40
2019-04-27T22:06:24.007Z,90.50
2019-04-27T22:08:53.912Z,91.00
2019-04-27T22:11:23.879Z,91.00
2019-04-27T22:13:53.812Z,91.10
2019-04-27T22:16:23.705Z,90.80
2019-04-27T22:18:53.643Z,90.70
2019-04-27T22:21:23.492Z,91.00
2019-04-27T22:24:14.511Z,90.70
2019-04-27T22:26:44.457Z,91.10
2019-04-27T22:29:14.336Z,91.20
2019-04-27T22:31:45.519Z,91.10
2019-04-27T22:34:15.398Z,91.30
2019-04-27T22:36:45.221Z,91.30
2019-04-27T22:39:37.004Z,91.30
2019-04-27T22:42:38.206Z,92.10
2019-04-27T22:45:21.580Z,91.70
2019-04-27T22:47:51.434Z,91.80
2019-04-27T22:50:21.295Z,92.20
2019-04-27T22:52:51.227Z,92.00
2019-04-27T22:55:21.966Z,92.20
2019-04-27T22:57:57.130Z,93.10
2019-04-27T23:00:35.979Z,93.30
2019-04-27T23:03:08.147Z,92.70
2019-04-27T23:05:37.980Z,93.40
2019-04-27T23:08:07.864Z,93.60
2019-04-27T23:10:37.691Z,93.20
2019-04-27T23:13:08.547Z,93.30
2019-04-27T23:15:42.774Z,93.10
2019-04-27T23:18:12.644Z,93.20
2019-04-27T23:20:42.633Z,93.40
2019-04-27T23:23:12.496Z,93.10
2019-04-27T23:25:42.718Z,92.50
2019-04-27T23:28:12.636Z,93.00
2019-04-27T23:31:02.375Z,93.20
2019-04-27T23:33:32.251Z,92.40
2019-04-27T23:36:02.204Z,93.00
2019-04-27T23:38:32.121Z,94.10
2019-04-27T23:41:02.024Z,93.50
2019-04-27T23:43:31.895Z,94.90
2019-04-27T23:46:01.843Z,94.10
2019-04-27T23:48:32.203Z,94.40
2019-04-27T23:51:22.266Z,94.30
2019-04-27T23:53:52.184Z,94.60
2019-04-27T23:56:22.535Z,94.60
2019-04-27T23:58:52.539Z,94.50
